createdAt,value
2019-03-01T00:00:09.829Z,10.72
2019-03-01T00:02:09.693Z,10.71
2019-03-01T00:06:09.862Z,10.71
2019-03-01T00:08:14.901Z,10.70
2019-03-01T00:12:09.894Z,10.70
2019-03-01T00:14:14.879Z,10.70
2019-03-01T00:18:09.718Z,10.69
2019-03-01T00:20:09.831Z,10.70
2019-03-01T00:24:09.848Z,10.69
2019-03-01T00:26:14.894Z,10.69
2019-03-01T00:30:09.972Z,10.68
2019-03-01T00:32:09.726Z,10.67
2019-03-01T00:36:09.827Z,10.67
2019-03-01T00:38:09.719Z,10.68
2019-03-01T00:42:09.881Z,10.67
2019-03-01T00:44:14.122Z,10.67
2019-03-01T00:48:09.922Z,10.67
2019-03-01T00:50:14.384Z,10.67
2019-03-01T00:54:09.753Z,10.65
2019-03-01T00:56:14.727Z,10.66
2019-03-01T01:00:09.745Z,10.65
2019-03-01T01:02:09.906Z,10.64
2019-03-01T01:06:10.884Z,10.65
2019-03-01T01:08:10.030Z,10.65
2019-03-01T01:12:09.906Z,10.65
2019-03-01T01:14:09.936Z,10.64
2019-03-01T01:18:09.984Z,10.64
2019-03-01T01:20:09.791Z,10.63
2019-03-01T01:24:09.905Z,10.63
2019-03-01T01:26:14.511Z,10.62
2019-03-01T01:30:09.981Z,10.62
2019-03-01T01:32:09.769Z,10.62
2019-03-01T01:36:09.938Z,10.62
2019-03-01T01:38:09.902Z,10.62
2019-03-01T01:42:09.934Z,10.61
2019-03-01T01:44:14.619Z,10.63
2019-03-01T01:48:09.818Z,10.62
2019-03-01T01:50:09.799Z,10.62
2019-03-01T01:54:09.846Z,10.61
2019-03-01T01:56:09.846Z,10.60
2019-03-01T02:00:09.849Z,10.59
2019-03-01T02:02:12.567Z,10.58
2019-03-01T02:06:15.056Z,10.59
2019-03-01T02:08:14.979Z,10.59
2019-03-01T02:12:09.879Z,10.59
2019-03-01T02:14:09.924Z,10.57
2019-03-01T02:18:09.995Z,10.59
2019-03-01T02:20:09.901Z,10.58
2019-03-01T02:24:15.069Z,10.57
2019-03-01T02:26:09.884Z,10.57
2019-03-01T02:30:13.960Z,10.58
2019-03-01T02:32:09.915Z,10.56
2019-03-01T02:36:09.901Z,10.55
2019-03-01T02:38:10.101Z,10.56
2019-03-01T02:42:09.942Z,10.57
2019-03-01T02:44:15.487Z,10.56
2019-03-01T02:48:09.942Z,10.55
2019-03-01T02:50:09.941Z,10.54
2019-03-01T02:54:09.964Z,10.54
2019-03-01T02:56:09.951Z,10.55
2019-03-01T03:00:10.005Z,10.54
2019-03-01T03:02:10.007Z,10.54
2019-03-01T03:06:10.016Z,10.53
2019-03-01T03:08:14.430Z,10.53
2019-03-01T03:12:10.049Z,10.52
2019-03-01T03:14:10.082Z,10.53
2019-03-01T03:18:10.042Z,10.51
2019-03-01T03:20:10.035Z,10.52
2019-03-01T03:24:10.033Z,10.51
2019-03-01T03:26:10.062Z,10.51
2019-03-01T03:30:10.099Z,10.49
2019-03-01T03:32:10.065Z,10.50
2019-03-01T03:36:10.084Z,10.49
2019-03-01T03:38:10.093Z,10.48
2019-03-01T03:42:10.106Z,10.49
2019-03-01T03:44:14.524Z,10.47
2019-03-01T03:48:10.108Z,10.48
2019-03-01T03:50:10.103Z,10.47
2019-03-01T03:54:10.115Z,10.47
2019-03-01T03:56:10.109Z,10.47
2019-03-01T04:00:10.140Z,10.46
2019-03-01T04:02:10.135Z,10.45
2019-03-01T04:06:10.149Z,10.45
2019-03-01T04:08:11.312Z,10.45
2019-03-01T04:12:10.325Z,10.45
2019-03-01T04:14:10.174Z,10.44
2019-03-01T04:18:10.164Z,10.45
2019-03-01T04:20:10.160Z,10.44
2019-03-01T04:24:10.183Z,10.43
2019-03-01T04:26:15.302Z,10.42
2019-03-01T04:30:14.516Z,10.43
2019-03-01T04:32:10.202Z,10.42
2019-03-01T04:36:10.183Z,10.42
2019-03-01T04:38:10.180Z,10.42
2019-03-01T04:42:10.197Z,10.40
2019-03-01T04:44:10.205Z,10.41
2019-03-01T04:48:10.216Z,10.41
2019-03-01T04:50:14.840Z,10.40
2019-03-01T04:54:10.221Z,10.40
2019-03-01T04:56:10.213Z,10.39
2019-03-01T05:00:10.276Z,10.40
2019-03-01T05:02:10.231Z,10.40
2019-03-01T05:06:10.244Z,10.39
2019-03-01T05:08:10.266Z,10.38
2019-03-01T05:12:10.259Z,10.38
2019-03-01T05:14:14.880Z,10.38
2019-03-01T05:18:10.254Z,10.36
2019-03-01T05:20:10.269Z,10.36
2019-03-01T05:24:10.265Z,10.38
2019-03-01T05:26:10.282Z,10.36
2019-03-01T05:30:10.279Z,10.36
2019-03-01T05:32:10.306Z,10.36
2019-03-01T05:36:10.256Z,10.36
2019-03-01T05:38:10.427Z,10.34
2019-03-01T05:42:11.515Z,10.34
2019-03-01T05:44:10.302Z,10.35
2019-03-01T05:48:12.347Z,10.34
2019-03-01T05:50:10.497Z,10.33
2019-03-01T05:54:14.005Z,10.34
2019-03-01T05:56:14.728Z,10.32
2019-03-01T06:00:10.329Z,10.32
2019-03-01T06:02:12.634Z,10.33
2019-03-01T06:06:15.380Z,10.32
2019-03-01T06:08:10.552Z,10.32
2019-03-01T06:12:10.428Z,10.30
2019-03-01T06:14:14.740Z,10.28
2019-03-01T06:18:10.354Z,10.29
2019-03-01T06:20:10.333Z,10.29
2019-03-01T06:24:10.364Z,10.26
2019-03-01T06:26:10.391Z,10.25
2019-03-01T06:30:10.382Z,10.25
2019-03-01T06:32:16.917Z,10.25
2019-03-01T06:36:10.395Z,10.23
2019-03-01T06:38:10.388Z,10.21
2019-03-01T06:42:10.408Z,10.21
2019-03-01T06:44:10.406Z,10.19
2019-03-01T06:48:12.723Z,10.20
2019-03-01T06:50:10.444Z,10.19
2019-03-01T06:54:10.404Z,10.17
2019-03-01T06:56:10.451Z,10.18
2019-03-01T07:00:10.438Z,10.15
2019-03-01T07:02:10.697Z,10.16
2019-03-01T07:06:12.759Z,10.16
2019-03-01T07:08:10.571Z,10.13
2019-03-01T07:12:12.514Z,10.13
2019-03-01T07:14:10.610Z,10.11
2019-03-01T07:18:15.497Z,10.11
2019-03-01T07:20:10.477Z,10.10
2019-03-01T07:24:12.609Z,10.08
2019-03-01T07:26:15.007Z,10.08
2019-03-01T07:30:10.524Z,10.07
2019-03-01T07:32:12.570Z,10.07
2019-03-01T07:36:10.503Z,10.07
2019-03-01T07:38:10.673Z,10.04
2019-03-01T07:42:10.521Z,10.02
2019-03-01T07:44:15.116Z,10.04
2019-03-01T07:48:10.558Z,10.01
2019-03-01T07:50:10.550Z,10.01
2019-03-01T07:54:13.239Z,10.00
2019-03-01T07:56:10.586Z,9.99
2019-03-01T08:00:10.844Z,9.98
2019-03-01T08:02:10.565Z,9.97
2019-03-01T08:06:13.558Z,9.98
2019-03-01T08:08:10.586Z,9.97
2019-03-01T08:12:10.569Z,9.94
2019-03-01T08:14:10.589Z,9.95
2019-03-01T08:18:10.581Z,9.86
2019-03-01T08:20:10.597Z,9.87
2019-03-01T08:24:15.071Z,9.91
2019-03-01T08:26:10.623Z,9.92
2019-03-01T08:30:11.279Z,9.90
2019-03-01T08:32:10.618Z,9.89
2019-03-01T08:36:10.627Z,9.88
2019-03-01T08:38:15.022Z,9.87
2019-03-01T08:42:14.475Z,9.85
2019-03-01T08:44:10.615Z,9.86
2019-03-01T08:48:10.612Z,9.86
2019-03-01T08:50:10.629Z,9.85
2019-03-01T08:54:15.233Z,9.83
2019-03-01T08:56:11.101Z,9.83
2019-03-01T09:00:10.621Z,9.78
2019-03-01T09:02:11.986Z,9.79
2019-03-01T09:06:10.639Z,9.79
2019-03-01T09:08:10.632Z,9.78
2019-03-01T09:12:10.634Z,9.77
2019-03-01T09:14:14.527Z,9.75
2019-03-01T09:18:11.603Z,9.76
2019-03-01T09:20:10.644Z,9.75
2019-03-01T09:24:15.848Z,9.75
2019-03-01T09:26:10.624Z,9.74
2019-03-01T09:30:10.639Z,9.73
2019-03-01T09:32:10.650Z,9.73
2019-03-01T09:36:10.655Z,9.72
2019-03-01T09:38:11.395Z,9.72
2019-03-01T09:42:12.361Z,9.72
2019-03-01T09:44:15.883Z,9.72
2019-03-01T09:48:12.220Z,9.71
2019-03-01T09:50:10.692Z,9.72
2019-03-01T09:54:10.754Z,9.71
2019-03-01T09:56:12.955Z,9.71
2019-03-01T10:00:10.697Z,9.71
2019-03-01T10:02:10.680Z,9.70
2019-03-01T10:06:10.695Z,9.71
2019-03-01T10:08:10.724Z,9.69
2019-03-01T10:12:10.710Z,9.68
2019-03-01T10:14:10.707Z,9.68
2019-03-01T10:18:10.781Z,9.69
2019-03-01T10:20:10.702Z,9.69
2019-03-01T10:24:10.737Z,9.68
2019-03-01T10:26:10.707Z,9.67
2019-03-01T10:30:10.748Z,9.68
2019-03-01T10:32:12.493Z,9.67
2019-03-01T10:36:10.769Z,9.67
2019-03-01T10:38:11.680Z,9.66
2019-03-01T10:42:10.734Z,9.65
2019-03-01T10:44:15.567Z,9.65
2019-03-01T10:48:10.751Z,9.64
2019-03-01T10:50:10.744Z,9.63
2019-03-01T10:54:10.801Z,9.65
2019-03-01T10:56:10.775Z,9.64
2019-03-01T11:00:10.795Z,9.63
2019-03-01T11:02:19.392Z,9.62
2019-03-01T11:06:10.817Z,9.59
2019-03-01T11:08:10.833Z,9.62
2019-03-01T11:12:10.816Z,9.60
2019-03-01T11:14:10.813Z,9.59
2019-03-01T11:18:10.839Z,9.60
2019-03-01T11:20:10.814Z,9.60
2019-03-01T11:24:10.886Z,9.58
2019-03-01T11:26:10.878Z,9.57
2019-03-01T11:30:10.897Z,9.57
2019-03-01T11:32:10.917Z,9.58
2019-03-01T11:36:10.894Z,9.58
2019-03-01T11:38:10.910Z,9.57
2019-03-01T11:42:10.923Z,9.56
2019-03-01T11:44:10.930Z,9.55
2019-03-01T11:48:10.940Z,9.55
2019-03-01T11:50:10.901Z,9.56
2019-03-01T11:54:12.800Z,9.57
2019-03-01T11:56:10.958Z,9.55
2019-03-01T12:00:10.970Z,9.54
2019-03-01T12:02:10.971Z,9.53
2019-03-01T12:06:10.990Z,9.52
2019-03-01T12:08:10.983Z,9.52
2019-03-01T12:12:11.025Z,9.54
2019-03-01T12:14:11.012Z,9.53
2019-03-01T12:18:11.062Z,9.52
2019-03-01T12:20:11.065Z,9.51
2019-03-01T12:24:11.078Z,9.49
2019-03-01T12:26:11.076Z,9.51
2019-03-01T12:30:11.073Z,9.48
2019-03-01T12:32:13.252Z,9.48
2019-03-01T12:36:11.076Z,9.48
2019-03-01T12:38:11.095Z,9.49
2019-03-01T12:42:11.379Z,9.48
2019-03-01T12:44:11.094Z,9.47
2019-03-01T12:48:11.091Z,9.49
2019-03-01T12:50:15.883Z,9.48
2019-03-01T12:54:11.128Z,9.48
2019-03-01T12:56:15.822Z,9.47
2019-03-01T13:00:11.107Z,9.47
2019-03-01T13:02:11.112Z,9.47
2019-03-01T13:06:11.137Z,9.47
2019-03-01T13:08:12.479Z,9.47
2019-03-01T13:12:11.108Z,9.47
2019-03-01T13:14:11.119Z,9.46
2019-03-01T13:18:15.770Z,9.47
2019-03-01T13:20:11.124Z,9.46
2019-03-01T13:24:12.679Z,9.46
2019-03-01T13:26:11.150Z,9.47
2019-03-01T13:30:15.632Z,9.47
2019-03-01T13:32:15.740Z,9.45
2019-03-01T13:36:13.248Z,9.47
2019-03-01T13:38:13.457Z,9.46
2019-03-01T13:42:20.810Z,9.45
2019-03-01T13:44:11.159Z,9.46
2019-03-01T13:48:11.150Z,9.46
2019-03-01T13:50:11.190Z,9.47
2019-03-01T13:54:17.972Z,9.46
2019-03-01T13:56:11.183Z,9.48
2019-03-01T14:00:11.172Z,9.48
2019-03-01T14:02:11.199Z,9.48
2019-03-01T14:06:32.442Z,9.47
2019-03-01T14:08:23.250Z,9.48
2019-03-01T14:12:11.206Z,9.47
2019-03-01T14:14:15.814Z,9.46
2019-03-01T14:18:11.230Z,9.47
2019-03-01T14:20:19.139Z,9.47
2019-03-01T14:24:11.217Z,9.47
2019-03-01T14:26:18.553Z,9.47
2019-03-01T14:30:11.215Z,9.47
2019-03-01T14:32:11.228Z,9.46
2019-03-01T14:36:11.228Z,9.44
2019-03-01T14:38:15.746Z,9.45
2019-03-01T14:42:11.805Z,9.46
2019-03-01T14:44:11.219Z,9.46
2019-03-01T14:48:11.253Z,9.44
2019-03-01T14:50:11.241Z,9.44
2019-03-01T14:54:16.445Z,9.45
2019-03-01T14:56:12.265Z,9.45
2019-03-01T15:00:12.957Z,9.44
2019-03-01T15:02:11.271Z,9.44
2019-03-01T15:06:18.961Z,9.43
2019-03-01T15:08:11.265Z,9.43
2019-03-01T15:12:11.252Z,9.42
2019-03-01T15:14:13.398Z,9.44
2019-03-01T15:18:11.300Z,9.43
2019-03-01T15:20:11.301Z,9.43
2019-03-01T15:24:11.331Z,9.41
2019-03-01T15:26:11.340Z,9.41
2019-03-01T15:30:11.337Z,9.41
2019-03-01T15:32:15.802Z,9.41
2019-03-01T15:36:13.714Z,9.40
2019-03-01T15:38:12.281Z,9.39
2019-03-01T15:42:14.271Z,9.40
2019-03-01T15:44:11.354Z,9.39
2019-03-01T15:48:11.378Z,9.39
2019-03-01T15:50:11.395Z,9.38
2019-03-01T15:54:15.997Z,9.38
2019-03-01T15:56:15.726Z,9.37
2019-03-01T16:00:11.353Z,9.36
2019-03-01T16:02:11.377Z,9.36
2019-03-01T16:06:14.097Z,9.35
2019-03-01T16:08:11.396Z,9.35
2019-03-01T16:12:11.392Z,9.33
2019-03-01T16:14:11.404Z,9.33
2019-03-01T16:18:11.413Z,9.33
2019-03-01T16:20:11.412Z,9.32
2019-03-01T16:24:11.437Z,9.33
2019-03-01T16:26:11.417Z,9.32
2019-03-01T16:30:14.612Z,9.32
2019-03-01T16:32:11.448Z,9.31
2019-03-01T16:36:11.453Z,9.31
2019-03-01T16:38:11.455Z,9.31
2019-03-01T16:42:17.923Z,9.31
2019-03-01T16:44:11.469Z,9.31
2019-03-01T16:48:13.638Z,9.29
2019-03-01T16:50:16.153Z,9.28
2019-03-01T16:54:16.571Z,9.28
2019-03-01T16:56:11.494Z,9.28
2019-03-01T17:00:14.672Z,9.27
2019-03-01T17:02:16.507Z,9.27
2019-03-01T17:06:13.761Z,9.27
2019-03-01T17:08:11.517Z,9.27
2019-03-01T17:12:13.896Z,9.24
2019-03-01T17:14:11.506Z,9.24
2019-03-01T17:18:12.413Z,9.24
2019-03-01T17:20:16.517Z,9.23
2019-03-01T17:24:12.273Z,9.21
2019-03-01T17:26:16.555Z,9.22
2019-03-01T17:30:14.332Z,9.19
2019-03-01T17:32:16.538Z,9.19
2019-03-01T17:36:20.651Z,9.18
2019-03-01T17:38:11.558Z,9.16
2019-03-01T17:42:11.551Z,9.17
2019-03-01T17:44:17.197Z,9.17
2019-03-01T17:48:11.550Z,9.16
2019-03-01T17:50:11.565Z,9.16
2019-03-01T17:54:15.539Z,9.14
2019-03-01T17:56:11.564Z,9.13
2019-03-01T18:00:11.562Z,9.13
2019-03-01T18:02:12.129Z,9.13
2019-03-01T18:06:12.896Z,9.12
2019-03-01T18:08:11.584Z,9.12
2019-03-01T18:14:11.593Z,9.10
2019-03-01T18:16:11.567Z,9.10
2019-03-01T18:20:16.570Z,9.10
2019-03-01T18:22:11.599Z,9.09
2019-03-01T18:26:16.252Z,9.07
2019-03-01T18:28:11.603Z,9.07
2019-03-01T18:32:11.621Z,9.08
2019-03-01T18:34:11.880Z,9.07
2019-03-01T18:38:11.621Z,9.05
2019-03-01T18:40:13.413Z,9.06
2019-03-01T18:44:11.614Z,9.04
2019-03-01T18:46:14.550Z,9.03
2019-03-01T18:50:11.653Z,9.03
2019-03-01T18:52:14.413Z,9.01
2019-03-01T18:56:11.640Z,9.01
2019-03-01T18:58:14.127Z,9.00
2019-03-01T19:02:11.651Z,8.98
2019-03-01T19:04:12.975Z,8.99
2019-03-01T19:08:11.661Z,8.97
2019-03-01T19:10:11.653Z,8.97
2019-03-01T19:14:11.684Z,8.96
2019-03-01T19:16:11.670Z,8.96
2019-03-01T19:20:11.694Z,8.96
2019-03-01T19:22:11.706Z,8.96
2019-03-01T19:26:11.687Z,8.93
2019-03-01T19:28:11.725Z,8.94
2019-03-01T19:32:11.726Z,8.93
2019-03-01T19:34:17.092Z,8.92
2019-03-01T19:38:11.866Z,8.92
2019-03-01T19:40:11.766Z,8.91
2019-03-01T19:44:11.709Z,8.90
2019-03-01T19:46:20.616Z,8.92
2019-03-01T19:50:11.730Z,8.90
2019-03-01T19:52:12.134Z,8.91
2019-03-01T19:56:11.723Z,8.88
2019-03-01T19:58:12.721Z,8.89
2019-03-01T20:02:11.724Z,8.87
2019-03-01T20:04:11.757Z,8.86
2019-03-01T20:08:11.740Z,8.87
2019-03-01T20:10:14.926Z,8.84
2019-03-01T20:14:11.749Z,8.84
2019-03-01T20:16:11.757Z,8.84
2019-03-01T20:20:11.743Z,8.84
2019-03-01T20:22:11.759Z,8.83
2019-03-01T20:26:11.756Z,8.83
2019-03-01T20:28:15.072Z,8.83
2019-03-01T20:32:12.622Z,8.81
2019-03-01T20:34:11.773Z,8.80
2019-03-01T20:38:11.766Z,8.80
2019-03-01T20:40:11.786Z,8.80
2019-03-01T20:44:14.703Z,8.78
2019-03-01T20:46:16.967Z,8.80
2019-03-01T20:50:15.365Z,8.79
2019-03-01T20:52:11.779Z,8.78
2019-03-01T20:56:13.807Z,8.77
2019-03-01T20:58:16.744Z,8.76
2019-03-01T21:02:12.795Z,8.75
2019-03-01T21:04:11.809Z,8.75
2019-03-01T21:08:11.786Z,8.74
2019-03-01T21:10:12.594Z,8.74
2019-03-01T21:14:11.813Z,8.74
2019-03-01T21:16:11.805Z,8.73
2019-03-01T21:20:11.843Z,8.74
2019-03-01T21:22:11.850Z,8.74
2019-03-01T21:26:15.234Z,8.73
2019-03-01T21:28:11.835Z,8.71
2019-03-01T21:32:14.566Z,8.71
2019-03-01T21:34:11.866Z,8.72
2019-03-01T21:38:13.853Z,8.71
2019-03-01T21:40:11.881Z,8.69
2019-03-01T21:44:16.811Z,8.70
2019-03-01T21:46:11.884Z,8.69
2019-03-01T21:50:19.042Z,8.68
2019-03-01T21:52:16.892Z,8.68
2019-03-01T21:56:11.916Z,8.68
2019-03-01T21:58:16.960Z,8.67
2019-03-01T22:02:13.679Z,8.66
2019-03-01T22:04:11.900Z,8.65
2019-03-01T22:10:11.940Z,8.65
2019-03-01T22:12:11.922Z,8.65
2019-03-01T22:16:11.970Z,8.64
2019-03-01T22:18:11.965Z,8.64
2019-03-01T22:22:12.005Z,8.63
2019-03-01T22:24:11.999Z,8.64
2019-03-01T22:28:12.017Z,8.62
2019-03-01T22:30:12.019Z,8.62
2019-03-01T22:34:12.039Z,8.60
2019-03-01T22:38:12.039Z,8.61
2019-03-01T22:40:12.056Z,8.60
2019-03-01T22:44:14.483Z,8.59
2019-03-01T22:46:14.163Z,8.61
2019-03-01T22:50:12.042Z,8.59
2019-03-01T22:52:14.202Z,8.58
2019-03-01T22:56:12.874Z,8.59
2019-03-01T22:58:17.075Z,8.57
2019-03-01T23:02:12.074Z,8.57
2019-03-01T23:04:12.060Z,8.56
2019-03-01T23:08:12.078Z,8.56
2019-03-01T23:10:12.071Z,8.55
2019-03-01T23:14:12.090Z,8.55
2019-03-01T23:16:12.089Z,8.55
2019-03-01T23:20:12.106Z,8.54
2019-03-01T23:22:12.094Z,8.52
2019-03-01T23:26:12.136Z,8.52
2019-03-01T23:28:12.140Z,8.52
2019-03-01T23:32:15.394Z,8.52
2019-03-01T23:34:12.174Z,8.51
2019-03-01T23:38:14.989Z,8.51
2019-03-01T23:40:12.163Z,8.51
2019-03-01T23:44:12.178Z,8.50
2019-03-01T23:46:12.178Z,8.49
2019-03-01T23:50:12.169Z,8.48
2019-03-01T23:52:12.185Z,8.48
2019-03-01T23:56:13.063Z,8.47
2019-03-01T23:58:12.631Z,8.48
